Airport View

Enter AWOS ICAO identifier for current METAR.

ex. KFNL

KVDI 191855Z AUTO 30010KT 10SM CLR 13/02 A3007 RMK AO2

19 Jan 2020 19:20

Frequency: 119.925

Phone: 912-538-0219

Other Area AWOS: KAZE - KSBO - KCWV - KBHC

TAF AMD KSAV 191841Z 1919/2018 28011G18KT P6SM SCT035 BKN200 FM192300 31009KT P6SM SKC FM200900 35008KT P6SM SKC